createdAt,value
2019-02-10T00:02:24.185Z,99513.61
2019-02-10T00:04:53.891Z,99517.57
2019-02-10T00:07:23.518Z,99522.50
2019-02-10T00:09:53.202Z,99525.42
2019-02-10T00:12:22.987Z,99528.89
2019-02-10T00:14:52.605Z,99516.70
2019-02-10T00:17:22.339Z,99528.78
2019-02-10T00:19:51.970Z,99524.31
2019-02-10T00:22:21.633Z,99536.15
2019-02-10T00:24:51.273Z,99526.61
2019-02-10T00:27:20.955Z,99526.50
2019-02-10T00:29:50.610Z,99529.88
2019-02-10T00:32:20.464Z,99543.05
2019-02-10T00:34:50.127Z,99535.82
2019-02-10T00:37:19.714Z,99542.19
2019-02-10T00:39:49.343Z,99549.55
2019-02-10T00:42:18.920Z,99555.47
2019-02-10T00:44:48.589Z,99559.30
2019-02-10T00:47:18.253Z,99554.98
2019-02-10T00:49:47.907Z,99561.34
2019-02-10T00:52:17.523Z,99556.65
2019-02-10T00:54:47.204Z,99555.96
2019-02-10T00:57:16.819Z,99555.03
2019-02-10T00:59:46.411Z,99550.91
2019-02-10T01:02:16.080Z,99550.16
2019-02-10T01:04:45.703Z,99556.14
2019-02-10T01:07:15.313Z,99550.00
2019-02-10T01:09:45.020Z,99553.89
2019-02-10T01:12:14.808Z,99549.77
2019-02-10T01:14:44.387Z,99543.19
2019-02-10T01:17:14.034Z,99546.95
2019-02-10T01:19:43.653Z,99543.25
2019-02-10T01:22:13.283Z,99543.02
2019-02-10T01:24:42.919Z,99534.05
2019-02-10T01:27:12.521Z,99538.09
2019-02-10T01:29:42.123Z,99534.22
2019-02-10T01:32:11.790Z,99522.95
2019-02-10T01:34:41.435Z,99522.48
2019-02-10T01:37:11.082Z,99516.28
2019-02-10T01:39:40.752Z,99521.98
2019-02-10T01:42:10.424Z,99523.44
2019-02-10T01:44:40.019Z,99512.77
2019-02-10T01:47:09.730Z,99516.36
2019-02-10T01:49:39.319Z,99517.15
2019-02-10T01:52:08.928Z,99517.84
2019-02-10T01:54:38.650Z,99523.72
2019-02-10T01:57:08.302Z,99522.56
2019-02-10T01:59:37.936Z,99522.38
2019-02-10T02:02:07.727Z,99523.58
2019-02-10T02:04:37.358Z,99526.39
2019-02-10T02:07:06.977Z,99520.73
2019-02-10T02:09:36.609Z,99515.95
2019-02-10T02:12:06.333Z,99520.23
2019-02-10T02:14:35.920Z,99517.80
2019-02-10T02:17:05.612Z,99513.17
2019-02-10T02:19:35.224Z,99497.66
2019-02-10T02:22:04.919Z,99493.77
2019-02-10T02:24:34.548Z,99494.08
2019-02-10T02:27:04.210Z,99493.81
2019-02-10T02:29:33.814Z,99490.69
2019-02-10T02:32:03.395Z,99487.28
2019-02-10T02:34:33.012Z,99486.22
2019-02-10T02:37:07.920Z,99491.68
2019-02-10T02:39:33.987Z,99484.41
2019-02-10T02:42:03.641Z,99492.84
2019-02-10T02:44:33.400Z,99495.31
2019-02-10T02:47:03.024Z,99503.82
2019-02-10T02:49:32.648Z,99505.22
2019-02-10T02:52:02.301Z,99501.66
2019-02-10T02:54:31.962Z,99512.44
2019-02-10T02:57:01.594Z,99523.49
2019-02-10T02:59:31.272Z,99511.23
2019-02-10T03:02:00.868Z,99518.26
2019-02-10T03:04:30.585Z,99515.25
2019-02-10T03:07:00.317Z,99517.31
2019-02-10T03:09:29.980Z,99518.49
2019-02-10T03:11:59.589Z,99522.17
2019-02-10T03:14:29.268Z,99508.97
2019-02-10T03:16:58.900Z,99508.44
2019-02-10T03:19:28.532Z,99512.84
2019-02-10T03:21:58.219Z,99510.30
2019-02-10T03:24:27.861Z,99508.97
2019-02-10T03:26:57.545Z,99512.98
2019-02-10T03:29:27.241Z,99512.44
2019-02-10T03:31:56.879Z,99504.15
2019-02-10T03:34:26.519Z,99501.50
2019-02-10T03:36:56.180Z,99505.70
2019-02-10T03:39:25.791Z,99508.45
2019-02-10T03:41:55.406Z,99510.04
2019-02-10T03:44:25.052Z,99514.84
2019-02-10T03:46:54.656Z,99526.78
2019-02-10T03:49:24.359Z,99516.31
2019-02-10T03:51:54.018Z,99525.09
2019-02-10T03:54:23.740Z,99517.25
2019-02-10T03:56:53.399Z,99522.78
2019-02-10T03:59:23.096Z,99524.86
2019-02-10T04:01:52.758Z,99525.83
2019-02-10T04:04:22.443Z,99527.65
2019-02-10T04:06:52.109Z,99531.50
2019-02-10T04:09:21.746Z,99534.28
2019-02-10T04:11:51.401Z,99536.39
2019-02-10T04:14:21.073Z,99530.59
2019-02-10T04:16:50.717Z,99524.45
2019-02-10T04:19:20.392Z,99521.66
2019-02-10T04:21:50.053Z,99521.30
2019-02-10T04:24:19.742Z,99518.01
2019-02-10T04:26:49.352Z,99517.98
2019-02-10T04:29:18.991Z,99511.82
2019-02-10T04:31:48.661Z,99521.04
2019-02-10T04:34:18.334Z,99519.73
2019-02-10T04:36:48.043Z,99516.58
2019-02-10T04:39:17.669Z,99516.59
2019-02-10T04:41:47.322Z,99516.75
2019-02-10T04:44:17.024Z,99512.09
2019-02-10T04:46:46.603Z,99511.95
2019-02-10T04:49:16.226Z,99508.63
2019-02-10T04:51:45.866Z,99510.27
2019-02-10T04:54:15.467Z,99508.40
2019-02-10T04:56:45.153Z,99508.80
2019-02-10T04:59:14.827Z,99506.00
2019-02-10T05:01:44.450Z,99511.30
2019-02-10T05:04:14.043Z,99508.63
2019-02-10T05:06:43.697Z,99505.20
2019-02-10T05:09:13.372Z,99502.62
2019-02-10T05:11:42.982Z,99511.38
2019-02-10T05:14:12.609Z,99516.30
2019-02-10T05:16:42.274Z,99510.09
2019-02-10T05:19:11.870Z,99515.47
2019-02-10T05:21:43.549Z,99508.05
2019-02-10T05:24:13.241Z,99516.59
2019-02-10T05:26:42.876Z,99510.91
2019-02-10T05:29:12.528Z,99524.27
2019-02-10T05:31:42.133Z,99525.34
2019-02-10T05:34:11.786Z,99529.31
2019-02-10T05:36:41.421Z,99540.50
2019-02-10T05:39:11.028Z,99531.76
2019-02-10T05:41:40.695Z,99532.27
2019-02-10T05:44:10.399Z,99532.27
2019-02-10T05:46:40.057Z,99532.62
2019-02-10T05:49:09.710Z,99540.16
2019-02-10T05:51:39.360Z,99539.55
2019-02-10T05:54:09.008Z,99551.71
2019-02-10T05:56:38.647Z,99547.33
2019-02-10T05:59:08.259Z,99559.72
2019-02-10T06:02:03.818Z,99559.96
2019-02-10T06:04:35.418Z,99562.55
2019-02-10T06:07:08.470Z,99569.23
2019-02-10T06:09:38.154Z,99569.37
2019-02-10T06:12:07.754Z,99564.62
2019-02-10T06:14:37.394Z,99583.42
2019-02-10T06:17:07.001Z,99582.06
2019-02-10T06:19:36.640Z,99583.81
2019-02-10T06:22:06.288Z,99584.63
2019-02-10T06:24:35.905Z,99587.14
2019-02-10T06:27:05.543Z,99588.11
2019-02-10T06:29:35.172Z,99588.84
2019-02-10T06:32:04.858Z,99600.42
2019-02-10T06:34:34.516Z,99607.23
2019-02-10T06:37:04.116Z,99615.13
2019-02-10T06:39:33.776Z,99619.86
2019-02-10T06:42:03.417Z,99617.59
2019-02-10T06:44:33.053Z,99617.20
2019-02-10T06:47:02.729Z,99613.20
2019-02-10T06:49:32.302Z,99613.64
2019-02-10T06:52:01.928Z,99612.28
2019-02-10T06:54:31.612Z,99614.71
2019-02-10T06:57:01.273Z,99611.66
2019-02-10T06:59:40.138Z,99606.58
2019-02-10T07:02:29.395Z,99608.58
2019-02-10T07:04:59.033Z,99605.99
2019-02-10T07:07:28.789Z,99608.41
2019-02-10T07:09:58.421Z,99608.20
2019-02-10T07:12:49.561Z,99611.75
2019-02-10T07:16:01.629Z,99612.31
2019-02-10T07:19:10.715Z,99617.70
2019-02-10T07:21:44.148Z,99618.50
2019-02-10T07:24:36.217Z,99617.41
2019-02-10T07:27:22.091Z,99615.60
2019-02-10T07:30:34.882Z,99626.83
2019-02-10T07:33:28.007Z,99632.25
2019-02-10T07:36:10.565Z,99628.89
2019-02-10T07:39:18.355Z,99626.98
2019-02-10T07:42:28.975Z,99625.10
2019-02-10T07:45:21.411Z,99627.95
2019-02-10T07:48:26.626Z,99623.58
2019-02-10T07:51:35.572Z,99633.03
2019-02-10T07:54:41.983Z,99634.06
2019-02-10T07:57:49.350Z,99630.30
2019-02-10T08:00:47.932Z,99632.03
2019-02-10T08:04:07.062Z,99626.38
2019-02-10T08:07:05.987Z,99624.55
2019-02-10T08:09:58.716Z,99637.59
2019-02-10T08:12:59.426Z,99640.82
2019-02-10T08:16:14.884Z,99631.11
2019-02-10T08:19:33.274Z,99634.01
2019-02-10T08:22:16.195Z,99623.77
2019-02-10T08:25:17.593Z,99630.72
2019-02-10T08:28:27.896Z,99621.24
2019-02-10T08:31:30.404Z,99624.16
2019-02-10T08:34:22.655Z,99624.73
2019-02-10T08:37:37.348Z,99630.16
2019-02-10T08:41:06.325Z,99627.58
2019-02-10T08:44:02.743Z,99625.53
2019-02-10T08:47:33.783Z,99621.19
2019-02-10T08:50:14.983Z,99619.86
2019-02-10T08:53:08.334Z,99614.09
2019-02-10T08:55:37.980Z,99618.34
2019-02-10T08:58:07.626Z,99618.66
2019-02-10T09:00:37.293Z,99613.86
2019-02-10T09:03:07.005Z,99617.73
2019-02-10T09:05:36.651Z,99617.33
2019-02-10T09:08:06.267Z,99612.78
2019-02-10T09:10:35.939Z,99607.78
2019-02-10T09:13:05.542Z,99609.85
2019-02-10T09:15:35.200Z,99601.48
2019-02-10T09:18:04.874Z,99609.17
2019-02-10T09:20:34.463Z,99607.18
2019-02-10T09:23:04.087Z,99597.98
2019-02-10T09:25:33.790Z,99597.49
2019-02-10T09:28:03.413Z,99590.54
2019-02-10T09:30:33.005Z,99597.87
2019-02-10T09:33:02.682Z,99592.20
2019-02-10T09:35:32.459Z,99585.05
2019-02-10T09:38:02.058Z,99577.59
2019-02-10T09:40:31.705Z,99584.09
2019-02-10T09:43:01.294Z,99576.59
2019-02-10T09:45:31.024Z,99570.91
2019-02-10T09:48:00.651Z,99560.91
2019-02-10T09:50:30.260Z,99564.29
2019-02-10T09:52:59.910Z,99558.23
2019-02-10T09:55:29.614Z,99549.59
2019-02-10T09:57:59.247Z,99550.45
2019-02-10T10:00:28.956Z,99543.39
2019-02-10T10:02:58.665Z,99544.17
2019-02-10T10:05:28.343Z,99540.00
2019-02-10T10:07:57.983Z,99540.58
2019-02-10T10:10:27.600Z,99536.75
2019-02-10T10:12:57.208Z,99537.88
2019-02-10T10:15:26.826Z,99536.73
2019-02-10T10:17:56.478Z,99528.54
2019-02-10T10:20:26.115Z,99530.06
2019-02-10T10:22:55.727Z,99524.40
2019-02-10T10:25:25.364Z,99528.91
2019-02-10T10:27:54.945Z,99520.47
2019-02-10T10:30:24.536Z,99513.78
2019-02-10T10:32:54.251Z,99517.30
2019-02-10T10:35:23.843Z,99512.45
2019-02-10T10:37:53.449Z,99514.86
2019-02-10T10:40:23.092Z,99508.94
2019-02-10T10:42:52.685Z,99505.84
2019-02-10T10:45:22.290Z,99498.93
2019-02-10T10:47:51.950Z,99493.16
2019-02-10T10:50:21.540Z,99494.86
2019-02-10T10:52:51.149Z,99490.74
2019-02-10T10:55:20.783Z,99487.69
2019-02-10T10:57:50.358Z,99484.81
2019-02-10T11:00:20.057Z,99484.69
2019-02-10T11:02:49.709Z,99484.43
2019-02-10T11:05:19.348Z,99481.02
2019-02-10T11:07:48.951Z,99467.33
2019-02-10T11:10:18.622Z,99464.19
2019-02-10T11:12:48.219Z,99461.82
2019-02-10T11:15:17.876Z,99450.56
2019-02-10T11:17:47.587Z,99454.98
2019-02-10T11:20:17.235Z,99451.36
2019-02-10T11:22:46.863Z,99444.32
2019-02-10T11:25:16.539Z,99445.19
2019-02-10T11:27:46.161Z,99443.03
2019-02-10T11:30:15.827Z,99439.99
2019-02-10T11:32:45.625Z,99439.16
2019-02-10T11:35:15.245Z,99431.79
2019-02-10T11:37:44.982Z,99437.66
2019-02-10T11:40:14.718Z,99431.77
2019-02-10T11:42:44.441Z,99435.31
2019-02-10T11:45:14.153Z,99428.59
2019-02-10T11:47:43.817Z,99422.05
2019-02-10T11:50:13.583Z,99419.20
2019-02-10T11:52:43.220Z,99415.92
2019-02-10T11:55:13.086Z,99413.09
2019-02-10T11:57:42.731Z,99407.10
2019-02-10T12:00:13.144Z,99407.91
2019-02-10T12:02:42.916Z,99401.98
2019-02-10T12:05:12.870Z,99389.42
2019-02-10T12:07:42.548Z,99393.94
2019-02-10T12:10:12.373Z,99391.13
2019-02-10T12:12:41.985Z,99388.12
2019-02-10T12:15:12.027Z,99380.19
2019-02-10T12:17:41.780Z,99378.57
2019-02-10T12:20:11.642Z,99377.81
2019-02-10T12:22:48.587Z,99374.69
2019-02-10T12:25:12.808Z,99372.92
2019-02-10T12:27:42.417Z,99366.09
2019-02-10T12:30:13.681Z,99357.70
2019-02-10T12:32:43.538Z,99360.34
2019-02-10T12:35:13.355Z,99352.33
2019-02-10T12:37:42.949Z,99347.20
2019-02-10T12:40:12.802Z,99340.27
2019-02-10T12:42:42.423Z,99331.23
2019-02-10T12:45:12.436Z,99332.53
2019-02-10T12:47:42.103Z,99330.13
2019-02-10T12:50:12.116Z,99324.52
2019-02-10T12:52:41.819Z,99334.59
2019-02-10T12:55:11.651Z,99327.31
2019-02-10T12:57:41.365Z,99325.25
2019-02-10T13:00:13.430Z,99324.71
2019-02-10T13:02:43.264Z,99322.66
2019-02-10T13:05:13.169Z,99324.54
2019-02-10T13:07:42.789Z,99323.55
2019-02-10T13:10:13.054Z,99324.67
2019-02-10T13:12:42.655Z,99317.08
2019-02-10T13:15:12.411Z,99315.56
2019-02-10T13:17:42.134Z,99321.55
2019-02-10T13:20:11.764Z,99321.17
2019-02-10T13:22:41.482Z,99314.68
2019-02-10T13:25:11.219Z,99316.99
2019-02-10T13:27:40.806Z,99308.66
2019-02-10T13:30:12.254Z,99306.18
2019-02-10T13:32:41.864Z,99299.31
2019-02-10T13:35:11.586Z,99309.10
2019-02-10T13:37:41.286Z,99309.97
2019-02-10T13:40:16.699Z,99305.59
2019-02-10T13:42:45.448Z,99296.77
2019-02-10T13:45:15.200Z,99299.56
2019-02-10T13:47:44.903Z,99294.84
2019-02-10T13:50:15.692Z,99293.33
2019-02-10T13:52:45.372Z,99294.78
2019-02-10T13:55:15.155Z,99295.22
2019-02-10T13:57:44.753Z,99294.43
2019-02-10T14:00:16.458Z,99294.27
2019-02-10T14:02:46.135Z,99279.73
2019-02-10T14:05:15.958Z,99278.77
2019-02-10T14:07:45.853Z,99287.69
2019-02-10T14:10:15.732Z,99277.41
2019-02-10T14:12:45.351Z,99272.66
2019-02-10T14:15:15.128Z,99267.45
2019-02-10T14:17:44.773Z,99270.94
2019-02-10T14:20:15.892Z,99261.33
2019-02-10T14:22:45.503Z,99264.73
2019-02-10T14:25:15.270Z,99266.50
2019-02-10T14:27:44.858Z,99254.50
2019-02-10T14:30:17.003Z,99254.00
2019-02-10T14:32:46.922Z,99251.38
2019-02-10T14:35:16.688Z,99249.72
2019-02-10T14:37:46.311Z,99251.34
2019-02-10T14:40:16.047Z,99252.39
2019-02-10T14:42:46.261Z,99248.75
2019-02-10T14:45:15.996Z,99255.59
2019-02-10T14:47:45.709Z,99260.41
2019-02-10T14:50:15.794Z,99261.27
2019-02-10T14:52:45.407Z,99259.75
2019-02-10T14:55:15.090Z,99253.08
2019-02-10T14:57:44.834Z,99252.76
2019-02-10T15:00:15.511Z,99250.78
2019-02-10T15:02:45.280Z,99251.81
2019-02-10T15:05:14.994Z,99243.59
2019-02-10T15:07:44.649Z,99241.61
2019-02-10T15:10:14.762Z,99235.70
2019-02-10T15:12:44.487Z,99238.17
2019-02-10T15:15:14.276Z,99235.28
2019-02-10T15:17:43.929Z,99235.41
2019-02-10T15:20:13.642Z,99241.84
2019-02-10T15:22:43.244Z,99240.56
2019-02-10T15:25:13.059Z,99241.70
2019-02-10T15:27:42.693Z,99242.69
2019-02-10T15:30:13.109Z,99250.23
2019-02-10T15:32:42.867Z,99247.25
2019-02-10T15:35:12.700Z,99250.09
2019-02-10T15:37:42.334Z,99257.96
2019-02-10T15:40:12.177Z,99255.25
2019-02-10T15:42:41.762Z,99256.58
2019-02-10T15:45:11.631Z,99246.51
2019-02-10T15:47:41.351Z,99246.83
2019-02-10T15:50:11.362Z,99242.96
2019-02-10T15:52:41.065Z,99251.22
2019-02-10T15:55:11.085Z,99256.94
2019-02-10T15:57:40.675Z,99257.92
2019-02-10T16:00:13.482Z,99253.78
2019-02-10T16:02:43.176Z,99264.00
2019-02-10T16:05:12.898Z,99268.70
2019-02-10T16:07:42.525Z,99265.02
2019-02-10T16:10:12.681Z,99260.13
2019-02-10T16:12:42.280Z,99259.33
2019-02-10T16:15:12.310Z,99261.31
2019-02-10T16:17:41.978Z,99260.45
2019-02-10T16:20:12.793Z,99254.89
2019-02-10T16:22:42.449Z,99267.22
2019-02-10T16:25:12.462Z,99273.70
2019-02-10T16:27:42.069Z,99264.59
2019-02-10T16:30:12.718Z,99278.26
2019-02-10T16:32:49.538Z,99272.81
2019-02-10T16:35:13.766Z,99277.48
2019-02-10T16:37:43.416Z,99286.20
2019-02-10T16:40:15.332Z,99282.87
2019-02-10T16:42:44.938Z,99289.30
2019-02-10T16:45:14.673Z,99283.67
2019-02-10T16:47:44.329Z,99280.36
2019-02-10T16:50:14.031Z,99281.34
2019-02-10T16:52:43.658Z,99284.98
2019-02-10T16:55:14.039Z,99282.87
2019-02-10T16:57:43.653Z,99289.02
2019-02-10T17:00:14.366Z,99288.92
2019-02-10T17:02:44.010Z,99292.67
2019-02-10T17:05:14.016Z,99282.95
2019-02-10T17:07:43.797Z,99282.29
2019-02-10T17:10:13.811Z,99285.93
2019-02-10T17:12:43.446Z,99285.80
2019-02-10T17:15:13.306Z,99289.38
2019-02-10T17:17:42.943Z,99289.52
2019-02-10T17:20:12.797Z,99283.99
2019-02-10T17:22:42.591Z,99280.81
2019-02-10T17:25:13.785Z,99289.67
2019-02-10T17:27:43.375Z,99292.57
2019-02-10T17:30:13.910Z,99285.00
2019-02-10T17:32:43.558Z,99278.69
2019-02-10T17:35:15.592Z,99272.20
2019-02-10T17:37:45.250Z,99265.74
2019-02-10T17:40:36.486Z,99264.15
2019-02-10T17:43:06.137Z,99263.61
2019-02-10T17:45:35.733Z,99257.62
2019-02-10T17:48:05.385Z,99259.11
2019-02-10T17:50:35.055Z,99264.59
2019-02-10T17:53:04.740Z,99257.68
2019-02-10T17:55:34.384Z,99257.22
2019-02-10T17:58:04.046Z,99260.22
2019-02-10T18:00:38.067Z,99257.09
2019-02-10T18:03:09.027Z,99251.28
2019-02-10T18:05:38.756Z,99245.94
2019-02-10T18:08:08.441Z,99249.05
2019-02-10T18:10:38.085Z,99259.84
2019-02-10T18:13:07.748Z,99254.63
2019-02-10T18:16:05.058Z,99257.03
2019-02-10T18:19:05.852Z,99252.42
2019-02-10T18:21:52.583Z,99248.92
2019-02-10T18:24:44.205Z,99255.17
2019-02-10T18:27:47.595Z,99250.06
2019-02-10T18:30:38.698Z,99252.48
2019-02-10T18:33:33.057Z,99246.57
2019-02-10T18:36:33.819Z,99247.36
2019-02-10T18:39:23.183Z,99233.77
2019-02-10T18:41:59.661Z,99223.58
2019-02-10T18:44:57.208Z,99228.72
2019-02-10T18:47:44.061Z,99230.44
2019-02-10T18:50:38.606Z,99224.41
2019-02-10T18:53:27.077Z,99218.55
2019-02-10T18:56:14.373Z,99211.64
2019-02-10T18:59:01.340Z,99210.72
2019-02-10T19:01:59.075Z,99221.95
2019-02-10T19:04:45.918Z,99214.72
2019-02-10T19:07:32.887Z,99217.48
2019-02-10T19:10:08.987Z,99218.82
2019-02-10T19:12:57.829Z,99218.27
2019-02-10T19:15:38.477Z,99224.88
2019-02-10T19:18:23.097Z,99219.53
2019-02-10T19:21:14.624Z,99227.40
2019-02-10T19:24:02.245Z,99224.36
2019-02-10T19:26:56.844Z,99220.44
2019-02-10T19:29:43.781Z,99230.02
2019-02-10T19:32:41.162Z,99229.70
2019-02-10T19:35:31.939Z,99222.93
2019-02-10T19:38:20.461Z,99227.91
2019-02-10T19:41:24.060Z,99226.98
2019-02-10T19:44:18.169Z,99227.85
2019-02-10T19:47:06.699Z,99237.48
2019-02-10T19:50:01.292Z,99224.77
2019-02-10T19:52:42.993Z,99223.61
2019-02-10T19:55:30.339Z,99223.15
2019-02-10T19:58:21.850Z,99211.99
2019-02-10T20:01:13.206Z,99215.86
2019-02-10T20:04:19.873Z,99222.20
2019-02-10T20:06:59.941Z,99219.84
2019-02-10T20:09:42.654Z,99217.22
2019-02-10T20:12:35.461Z,99215.03
2019-02-10T20:15:15.095Z,99214.72
2019-02-10T20:18:12.384Z,99213.70
2019-02-10T20:21:09.900Z,99217.25
2019-02-10T20:23:57.403Z,99203.91
2019-02-10T20:27:01.159Z,99207.34
2019-02-10T20:29:46.600Z,99204.98
2019-02-10T20:32:35.158Z,99207.84
2019-02-10T20:35:38.658Z,99203.59
2019-02-10T20:38:30.107Z,99203.99
2019-02-10T20:41:18.572Z,99196.48
2019-02-10T20:43:58.276Z,99193.17
2019-02-10T20:46:47.877Z,99195.34
2019-02-10T20:49:40.486Z,99197.25
2019-02-10T20:52:26.242Z,99198.33
2019-02-10T20:55:02.384Z,99191.08
2019-02-10T20:57:41.109Z,99186.77
2019-02-10T21:00:29.810Z,99187.03
2019-02-10T21:03:30.206Z,99186.89
2019-02-10T21:06:30.889Z,99181.21
2019-02-10T21:09:24.922Z,99175.24
2019-02-10T21:12:20.170Z,99178.33
2019-02-10T21:15:00.828Z,99171.19
2019-02-10T21:17:49.342Z,99165.85
2019-02-10T21:20:37.847Z,99168.85
2019-02-10T21:23:23.613Z,99167.00
2019-02-10T21:25:58.733Z,99169.13
2019-02-10T21:28:46.032Z,99158.94
2019-02-10T21:31:35.819Z,99160.56
2019-02-10T21:34:30.272Z,99153.41
2019-02-10T21:37:14.129Z,99149.78
2019-02-10T21:40:08.534Z,99139.47
2019-02-10T21:42:52.066Z,99136.88
2019-02-10T21:45:40.519Z,99135.25
2019-02-10T21:48:23.498Z,99135.99
2019-02-10T21:50:53.173Z,99140.64
2019-02-10T21:53:22.960Z,99140.64
2019-02-10T21:55:52.604Z,99136.55
2019-02-10T21:58:22.270Z,99135.97
2019-02-10T22:00:52.006Z,99133.84
2019-02-10T22:03:21.599Z,99116.42
2019-02-10T22:05:51.289Z,99103.82
2019-02-10T22:08:20.942Z,99096.45
2019-02-10T22:10:50.521Z,99091.25
2019-02-10T22:13:20.204Z,99089.78
2019-02-10T22:15:49.849Z,99091.44
2019-02-10T22:18:19.497Z,99082.46
2019-02-10T22:20:49.122Z,99090.42
2019-02-10T22:23:18.762Z,99078.96
2019-02-10T22:25:48.349Z,99080.02
2019-02-10T22:28:18.011Z,99086.98
2019-02-10T22:30:47.698Z,99084.38
2019-02-10T22:33:17.292Z,99085.47
2019-02-10T22:35:46.890Z,99077.69
2019-02-10T22:38:16.578Z,99073.52
2019-02-10T22:40:46.180Z,99078.91
2019-02-10T22:43:15.772Z,99070.34
2019-02-10T22:45:45.424Z,99065.24
2019-02-10T22:48:15.130Z,99063.31
2019-02-10T22:50:44.734Z,99047.20
2019-02-10T22:53:14.379Z,99044.16
2019-02-10T22:55:43.983Z,99051.89
2019-02-10T22:58:13.594Z,99051.89
2019-02-10T23:00:51.972Z,99043.88
2019-02-10T23:03:21.645Z,99035.60
2019-02-10T23:05:51.256Z,99035.65
2019-02-10T23:08:21.020Z,99043.45
2019-02-10T23:10:51.992Z,99037.67
2019-02-10T23:13:21.717Z,99034.90
2019-02-10T23:15:51.416Z,99028.48
2019-02-10T23:18:20.995Z,99030.87
2019-02-10T23:20:50.621Z,99041.81
2019-02-10T23:23:20.260Z,99050.59
2019-02-10T23:25:49.863Z,99040.74
2019-02-10T23:28:19.493Z,99029.88
2019-02-10T23:30:49.145Z,99016.58
2019-02-10T23:33:18.782Z,99006.78
2019-02-10T23:35:48.415Z,99005.92
2019-02-10T23:38:18.053Z,99010.42
2019-02-10T23:40:47.707Z,99011.65
2019-02-10T23:43:17.392Z,99021.99
2019-02-10T23:45:47.072Z,99012.17
2019-02-10T23:48:16.734Z,99013.42
2019-02-10T23:50:46.372Z,99012.86
2019-02-10T23:53:16.027Z,99008.59
2019-02-10T23:55:45.626Z,98996.28
2019-02-10T23:58:15.298Z,98991.62
